createdAt,value
2023-02-20T00:03:32.333Z,100925.28
2023-02-20T00:08:33.952Z,100926.97
2023-02-20T00:13:35.544Z,100935.03
2023-02-20T00:18:37.088Z,100922.97
2023-02-20T00:23:38.648Z,100918.38
2023-02-20T00:28:41.475Z,100922.78
2023-02-20T00:33:44.277Z,100903.94
2023-02-20T00:38:46.867Z,100903.41
2023-02-20T00:43:48.485Z,100889.47
2023-02-20T00:48:50.898Z,100891.41
2023-02-20T00:54:10.981Z,100903.84
2023-02-20T00:59:12.911Z,100884.97
2023-02-20T01:04:15.599Z,100892.34
2023-02-20T01:09:17.163Z,100869.22
2023-02-20T01:14:18.777Z,100882.50
2023-02-20T01:19:22.271Z,100881.84
2023-02-20T01:24:23.851Z,100870.25
2023-02-20T01:29:25.451Z,100855.81
2023-02-20T01:34:27.198Z,100840.75
2023-02-20T01:39:33.831Z,100845.41
2023-02-20T01:44:37.187Z,100842.03
2023-02-20T01:50:08.256Z,100841.25
2023-02-20T01:55:12.926Z,100834.88
2023-02-20T02:00:20.038Z,100824.84
2023-02-20T02:05:22.679Z,100821.34
2023-02-20T02:10:36.548Z,100815.81
2023-02-20T02:15:38.137Z,100812.66
2023-02-20T02:20:58.910Z,100807.09
2023-02-20T02:26:15.752Z,100810.94
2023-02-20T02:31:54.844Z,100808.19
2023-02-20T02:37:03.024Z,100796.09
2023-02-20T02:42:29.715Z,100792.47
2023-02-20T02:47:37.795Z,100804.53
2023-02-20T02:52:49.956Z,100795.66
2023-02-20T02:57:51.713Z,100769.06
2023-02-20T03:02:59.226Z,100760.09
2023-02-20T03:08:01.361Z,100759.91
2023-02-20T03:13:04.724Z,100749.38
2023-02-20T03:18:29.666Z,100745.16
2023-02-20T03:23:33.902Z,100742.00
2023-02-20T03:28:46.135Z,100740.75
2023-02-20T03:34:18.472Z,100743.00
2023-02-20T03:39:45.248Z,100726.31
2023-02-20T03:44:48.062Z,100729.72
2023-02-20T03:49:50.691Z,100730.84
2023-02-20T03:54:52.913Z,100730.72
2023-02-20T04:00:02.555Z,100737.63
2023-02-20T04:05:09.582Z,100729.19
2023-02-20T04:10:15.651Z,100727.25
2023-02-20T04:15:18.999Z,100717.81
2023-02-20T04:20:21.749Z,100704.00
2023-02-20T04:25:46.954Z,100704.94
2023-02-20T04:30:49.686Z,100703.53
2023-02-20T04:35:52.299Z,100699.88
2023-02-20T04:40:54.377Z,100695.06
2023-02-20T04:45:57.444Z,100705.13
2023-02-20T04:51:01.979Z,100705.47
2023-02-20T04:56:08.655Z,100699.81
2023-02-20T05:01:14.572Z,100705.50
2023-02-20T05:06:16.196Z,100691.19
2023-02-20T05:11:17.812Z,100694.59
2023-02-20T05:16:19.413Z,100678.34
2023-02-20T05:21:39.400Z,100670.00
2023-02-20T05:26:40.993Z,100664.19
2023-02-20T05:31:42.948Z,100651.81
2023-02-20T05:36:44.593Z,100638.84
2023-02-20T05:41:46.296Z,100626.97
2023-02-20T05:46:48.105Z,100625.34
2023-02-20T05:51:52.985Z,100629.97
2023-02-20T05:56:54.544Z,100643.69
2023-02-20T06:01:57.243Z,100633.22
2023-02-20T06:06:58.843Z,100635.16
2023-02-20T06:12:00.440Z,100633.69
2023-02-20T06:17:02.038Z,100635.16
2023-02-20T06:22:03.656Z,100634.66
2023-02-20T06:27:06.476Z,100631.63
2023-02-20T06:32:08.340Z,100615.47
2023-02-20T06:37:10.020Z,100633.41
2023-02-20T06:42:12.170Z,100629.50
2023-02-20T06:47:13.750Z,100616.38
2023-02-20T06:52:15.446Z,100613.59
2023-02-20T06:57:17.100Z,100610.88
2023-02-20T07:02:18.835Z,100622.91
2023-02-20T07:07:20.535Z,100611.28
2023-02-20T07:12:24.780Z,100602.75
2023-02-20T07:17:26.427Z,100601.28
2023-02-20T07:22:28.143Z,100600.28
2023-02-20T07:27:29.749Z,100588.84
2023-02-20T07:32:31.312Z,100590.44
2023-02-20T07:37:32.905Z,100588.75
2023-02-20T07:42:34.526Z,100578.28
2023-02-20T07:47:51.648Z,100582.72
2023-02-20T07:52:53.274Z,100576.75
2023-02-20T07:57:58.072Z,100562.72
2023-02-20T08:03:00.001Z,100570.78
2023-02-20T08:08:01.651Z,100589.50
2023-02-20T08:13:03.711Z,100541.16
2023-02-20T08:18:09.918Z,100526.09
2023-02-20T08:23:21.303Z,100524.03
2023-02-20T08:28:23.021Z,100526.81
2023-02-20T08:33:24.603Z,100522.50
2023-02-20T08:38:32.204Z,100527.34
2023-02-20T08:43:35.194Z,100504.31
2023-02-20T08:48:37.227Z,100499.50
2023-02-20T08:53:39.423Z,100517.25
2023-02-20T08:58:41.042Z,100496.28
2023-02-20T09:03:43.745Z,100473.94
2023-02-20T09:08:45.411Z,100479.28
2023-02-20T09:13:47.970Z,100464.91
2023-02-20T09:18:49.851Z,100465.44
2023-02-20T09:23:51.537Z,100458.69
2023-02-20T09:28:53.126Z,100450.66
2023-02-20T09:33:54.723Z,100429.78
2023-02-20T09:38:56.313Z,100441.50
2023-02-20T09:44:27.845Z,100439.06
2023-02-20T09:49:34.040Z,100435.81
2023-02-20T09:54:54.772Z,100426.75
2023-02-20T10:00:06.569Z,100418.81
2023-02-20T10:05:28.507Z,100423.59
2023-02-20T10:10:39.061Z,100402.13
2023-02-20T10:15:44.617Z,100395.19
2023-02-20T10:21:17.986Z,100399.50
2023-02-20T10:26:37.773Z,100390.16
2023-02-20T10:31:44.275Z,100362.44
2023-02-20T10:36:51.691Z,100377.91
2023-02-20T10:41:59.991Z,100375.63
2023-02-20T10:47:27.357Z,100365.97
2023-02-20T10:52:34.835Z,100362.38
2023-02-20T10:57:54.813Z,100349.03
2023-02-20T11:03:01.618Z,100329.75
2023-02-20T11:08:03.280Z,100317.56
2023-02-20T11:13:05.487Z,100318.97
2023-02-20T11:18:20.050Z,100300.22
2023-02-20T11:23:35.954Z,100284.56
2023-02-20T11:28:39.199Z,100267.09
2023-02-20T11:33:47.900Z,100260.44
2023-02-20T11:39:00.461Z,100212.84
2023-02-20T11:44:10.894Z,100192.13
2023-02-20T11:49:24.387Z,100194.31
2023-02-20T11:54:29.774Z,100187.16
2023-02-20T11:59:37.474Z,100192.19
2023-02-20T12:04:39.278Z,100184.66
2023-02-20T12:09:41.430Z,100166.72
2023-02-20T12:14:43.043Z,100155.69
2023-02-20T12:20:06.177Z,100149.66
2023-02-20T12:25:13.486Z,100144.81
2023-02-20T12:30:33.718Z,100133.25
2023-02-20T12:35:38.286Z,100131.91
2023-02-20T12:40:47.066Z,100124.19
2023-02-20T12:46:22.173Z,100124.84
2023-02-20T12:51:38.534Z,100126.53
2023-02-20T12:56:45.996Z,100123.19
2023-02-20T13:01:48.387Z,100115.44
2023-02-20T13:06:49.872Z,100119.31
2023-02-20T13:11:57.507Z,100105.72
2023-02-20T13:17:20.945Z,100106.41
2023-02-20T13:22:22.639Z,100108.09
2023-02-20T13:27:30.695Z,100108.25
2023-02-20T13:32:33.206Z,100095.66
2023-02-20T13:37:34.882Z,100084.75
2023-02-20T13:42:36.582Z,100087.44
2023-02-20T13:47:38.441Z,100090.75
2023-02-20T13:52:40.242Z,100094.28
2023-02-20T13:57:44.892Z,100065.06
2023-02-20T14:02:46.490Z,100067.41
2023-02-20T14:07:48.588Z,100077.50
2023-02-20T14:13:08.724Z,100068.91
2023-02-20T14:18:24.756Z,100065.72
2023-02-20T14:23:30.361Z,100065.56
2023-02-20T14:28:34.254Z,100053.97
2023-02-20T14:33:35.909Z,100049.44
2023-02-20T14:39:21.935Z,100063.88
2023-02-20T14:44:24.945Z,100065.38
2023-02-20T14:49:33.500Z,100073.09
2023-02-20T14:54:35.813Z,100064.38
2023-02-20T14:59:39.732Z,100058.00
2023-02-20T15:05:09.942Z,100063.06
2023-02-20T15:10:36.810Z,100076.31
2023-02-20T15:15:43.429Z,100078.19
2023-02-20T15:20:49.227Z,100075.84
2023-02-20T15:25:51.130Z,100062.94
2023-02-20T15:31:11.044Z,100084.25
2023-02-20T15:36:14.839Z,100082.22
2023-02-20T15:41:18.379Z,100081.06
2023-02-20T15:46:20.698Z,100085.41
2023-02-20T15:51:23.158Z,100082.56
2023-02-20T15:56:27.986Z,100084.56
2023-02-20T16:01:29.642Z,100082.56
2023-02-20T16:06:31.640Z,100074.69
2023-02-20T16:11:44.273Z,100082.72
2023-02-20T16:16:47.591Z,100079.22
2023-02-20T16:21:58.636Z,100085.09
2023-02-20T16:27:01.496Z,100091.13
2023-02-20T16:32:03.240Z,100105.88
2023-02-20T16:37:05.989Z,100097.31
2023-02-20T16:42:22.860Z,100114.78
2023-02-20T16:47:27.770Z,100113.09
2023-02-20T16:52:32.434Z,100123.19
2023-02-20T16:57:34.066Z,100120.16
2023-02-20T17:02:35.849Z,100109.94
2023-02-20T17:07:37.454Z,100106.41
2023-02-20T17:12:39.031Z,100113.28
2023-02-20T17:17:41.723Z,100124.53
2023-02-20T17:22:44.304Z,100114.63
2023-02-20T17:27:47.273Z,100120.34
2023-02-20T17:32:49.663Z,100115.63
2023-02-20T17:37:51.344Z,100118.16
2023-02-20T17:42:53.128Z,100124.38
2023-02-20T17:47:54.730Z,100113.63
2023-02-20T17:52:56.428Z,100127.53
2023-02-20T17:57:58.037Z,100145.69
2023-02-20T18:02:59.735Z,100167.16
2023-02-20T18:08:01.353Z,100164.06
2023-02-20T18:13:03.164Z,100175.63
2023-02-20T18:18:05.303Z,100179.31
2023-02-20T18:23:07.068Z,100196.00
2023-02-20T18:28:09.627Z,100199.06
2023-02-20T18:33:11.403Z,100199.66
2023-02-20T18:38:12.987Z,100208.84
2023-02-20T18:43:14.571Z,100220.63
2023-02-20T18:48:16.229Z,100202.22
2023-02-20T18:53:18.015Z,100196.75
2023-02-20T18:58:19.635Z,100199.06
2023-02-20T19:03:21.258Z,100195.78
2023-02-20T19:08:23.338Z,100182.34
2023-02-20T19:13:25.015Z,100172.94
2023-02-20T19:18:26.623Z,100168.84
2023-02-20T19:23:28.169Z,100162.69
2023-02-20T19:28:29.838Z,100174.91
2023-02-20T19:33:31.472Z,100169.09
2023-02-20T19:38:34.724Z,100165.28
2023-02-20T19:43:36.357Z,100153.84
2023-02-20T19:48:37.963Z,100138.69
2023-02-20T19:53:39.933Z,100130.56
2023-02-20T19:58:41.678Z,100131.66
2023-02-20T20:03:44.500Z,100129.66
2023-02-20T20:09:10.174Z,100137.38
2023-02-20T20:14:08.719Z,100152.66
2023-02-20T20:19:10.997Z,100160.78
2023-02-20T20:24:12.627Z,100163.19
2023-02-20T20:29:14.257Z,100157.59
2023-02-20T20:34:15.889Z,100164.09
2023-02-20T20:39:18.781Z,100168.00
2023-02-20T20:44:23.705Z,100156.19
2023-02-20T20:49:25.304Z,100150.72
2023-02-20T20:54:26.839Z,100144.41
2023-02-20T20:59:28.444Z,100143.75
2023-02-20T21:04:30.158Z,100132.63
2023-02-20T21:09:31.809Z,100137.28
2023-02-20T21:14:37.826Z,100126.56
2023-02-20T21:19:42.017Z,100122.16
2023-02-20T21:24:43.695Z,100122.25
2023-02-20T21:29:45.372Z,100113.38
2023-02-20T21:34:46.951Z,100115.38
2023-02-20T21:39:48.636Z,100115.50
2023-02-20T21:44:50.242Z,100112.44
2023-02-20T21:49:52.215Z,100110.84
2023-02-20T21:54:54.508Z,100114.00
2023-02-20T21:59:56.078Z,100122.50
2023-02-20T22:04:57.578Z,100121.22
2023-02-20T22:10:17.713Z,100133.06
2023-02-20T22:15:37.663Z,100122.03
2023-02-20T22:20:58.001Z,100112.16
2023-02-20T22:26:18.218Z,100117.50
2023-02-20T22:31:38.610Z,100120.19
2023-02-20T22:36:58.534Z,100106.44
2023-02-20T22:42:23.292Z,100091.34
2023-02-20T22:47:49.784Z,100091.97
2023-02-20T22:53:09.851Z,100089.03
2023-02-20T22:58:30.373Z,100080.97
2023-02-20T23:03:50.466Z,100080.63
2023-02-20T23:09:10.654Z,100077.97
2023-02-20T23:14:30.701Z,100069.56
2023-02-20T23:19:50.902Z,100083.66
2023-02-20T23:25:11.088Z,100086.69
2023-02-20T23:30:32.213Z,100087.59
2023-02-20T23:35:52.063Z,100099.81
2023-02-20T23:41:12.684Z,100096.63
2023-02-20T23:46:32.958Z,100088.59
2023-02-20T23:51:53.500Z,100101.94
2023-02-20T23:57:13.630Z,100106.72
